createdAt,value
2023-05-14T00:01:33.730Z,9.52
2023-05-14T00:04:03.391Z,8.57
2023-05-14T00:06:31.923Z,8.32
2023-05-14T00:09:00.535Z,9.80
2023-05-14T00:11:28.934Z,8.02
2023-05-14T00:13:57.352Z,10.48
2023-05-14T00:16:25.850Z,7.78
2023-05-14T00:18:54.443Z,9.15
2023-05-14T00:21:22.859Z,8.88
2023-05-14T00:23:51.288Z,9.30
2023-05-14T00:26:21.415Z,7.05
2023-05-14T00:28:49.923Z,8.60
2023-05-14T00:31:18.348Z,10.57
2023-05-14T00:33:46.865Z,10.52
2023-05-14T00:36:15.293Z,9.05
2023-05-14T00:38:43.724Z,7.07
2023-05-14T00:41:12.238Z,10.35
2023-05-14T00:43:40.890Z,11.68
2023-05-14T00:46:09.493Z,8.50
2023-05-14T00:48:38.101Z,9.52
2023-05-14T00:51:07.804Z,10.05
2023-05-14T00:53:36.662Z,11.20
2023-05-14T00:56:05.623Z,11.55
2023-05-14T00:58:34.264Z,8.07
2023-05-14T01:01:03.946Z,8.80
2023-05-14T01:03:33.680Z,13.50
2023-05-14T01:06:26.404Z,9.35
2023-05-14T01:09:13.631Z,9.60
2023-05-14T01:12:02.826Z,9.98
2023-05-14T01:14:42.922Z,12.18
2023-05-14T01:17:15.449Z,9.82
2023-05-14T01:19:45.261Z,11.82
2023-05-14T01:22:14.275Z,8.43
2023-05-14T01:24:42.760Z,12.55
2023-05-14T01:27:43.490Z,10.82
2023-05-14T01:30:21.460Z,11.07
2023-05-14T01:32:53.798Z,16.25
2023-05-14T01:35:28.845Z,10.20
2023-05-14T01:38:01.118Z,12.02
2023-05-14T01:40:30.472Z,15.63
2023-05-14T01:42:59.717Z,9.75
2023-05-14T01:45:28.132Z,9.93
2023-05-14T01:47:57.339Z,10.20
2023-05-14T01:50:26.002Z,10.77
2023-05-14T01:52:56.538Z,12.27
2023-05-14T01:55:25.695Z,12.30
2023-05-14T01:57:54.377Z,10.65
2023-05-14T02:00:25.867Z,12.45
2023-05-14T02:02:54.611Z,13.18
2023-05-14T02:05:24.003Z,11.00
2023-05-14T02:07:52.509Z,13.65
2023-05-14T02:10:21.180Z,11.60
2023-05-14T02:12:49.795Z,14.68
2023-05-14T02:15:18.361Z,10.85
2023-05-14T02:17:46.915Z,13.13
2023-05-14T02:20:15.526Z,13.43
2023-05-14T02:22:46.108Z,13.13
2023-05-14T02:25:14.788Z,14.77
2023-05-14T02:27:43.191Z,11.48
2023-05-14T02:30:12.582Z,12.98
2023-05-14T02:32:41.364Z,15.48
2023-05-14T02:35:10.066Z,13.48
2023-05-14T02:37:38.486Z,11.95
2023-05-14T02:40:07.702Z,12.00
2023-05-14T02:42:36.151Z,12.98
2023-05-14T02:45:05.028Z,12.88
2023-05-14T02:47:36.102Z,10.73
2023-05-14T02:50:06.808Z,12.52
2023-05-14T02:52:35.748Z,13.32
2023-05-14T02:55:04.873Z,13.55
2023-05-14T02:57:33.338Z,16.88
2023-05-14T03:00:01.770Z,15.00
2023-05-14T03:02:31.099Z,14.18
2023-05-14T03:05:00.087Z,12.38
2023-05-14T03:07:28.561Z,15.85
2023-05-14T03:09:57.157Z,14.80
2023-05-14T03:12:25.680Z,16.50
2023-05-14T03:14:54.132Z,15.00
2023-05-14T03:17:22.999Z,14.70
2023-05-14T03:19:51.456Z,17.25
2023-05-14T03:22:19.957Z,14.95
2023-05-14T03:24:48.376Z,14.18
2023-05-14T03:27:16.837Z,15.27
2023-05-14T03:29:45.309Z,15.00
2023-05-14T03:32:13.873Z,15.85
2023-05-14T03:34:42.455Z,17.92
2023-05-14T03:37:11.397Z,17.35
2023-05-14T03:39:40.002Z,15.43
2023-05-14T03:42:08.420Z,16.73
2023-05-14T03:44:36.800Z,15.95
2023-05-14T03:47:05.373Z,13.95
2023-05-14T03:49:35.132Z,18.58
2023-05-14T03:52:04.847Z,16.10
2023-05-14T03:54:33.387Z,17.75
2023-05-14T03:57:01.969Z,18.20
2023-05-14T03:59:30.492Z,16.65
2023-05-14T04:01:58.846Z,18.15
2023-05-14T04:04:27.556Z,15.38
2023-05-14T04:06:56.216Z,18.48
2023-05-14T04:09:24.729Z,17.40
2023-05-14T04:11:53.273Z,17.02
2023-05-14T04:14:21.789Z,19.83
2023-05-14T04:16:50.344Z,18.38
2023-05-14T04:19:19.093Z,17.33
2023-05-14T04:21:47.683Z,21.77
2023-05-14T04:24:17.309Z,19.17
2023-05-14T04:26:45.794Z,17.80
2023-05-14T04:29:14.185Z,19.70
2023-05-14T04:31:43.177Z,17.63
2023-05-14T04:34:11.921Z,17.20
2023-05-14T04:36:40.407Z,15.88
2023-05-14T04:39:12.444Z,18.55
2023-05-14T04:44:09.583Z,21.40
2023-05-14T04:46:38.083Z,19.85
2023-05-14T04:49:06.657Z,17.42
2023-05-14T04:51:35.118Z,17.98
2023-05-14T04:54:03.700Z,20.10
2023-05-14T04:56:32.230Z,17.25
2023-05-14T04:59:00.746Z,16.63
2023-05-14T05:01:29.379Z,19.40
2023-05-14T05:03:58.174Z,19.05
2023-05-14T05:06:26.800Z,19.83
2023-05-14T05:08:55.851Z,19.20
2023-05-14T05:11:24.325Z,21.40
2023-05-14T05:13:52.838Z,19.30
2023-05-14T05:16:21.301Z,20.77
2023-05-14T05:18:49.813Z,21.73
2023-05-14T05:21:18.386Z,19.67
2023-05-14T05:23:46.772Z,23.27
2023-05-14T05:26:15.784Z,20.33
2023-05-14T05:28:44.203Z,20.23
2023-05-14T05:31:12.800Z,18.27
2023-05-14T05:33:41.335Z,18.95
2023-05-14T05:36:09.762Z,21.63
2023-05-14T05:38:38.169Z,16.63
2023-05-14T05:41:06.849Z,15.57
2023-05-14T05:43:35.506Z,17.05
2023-05-14T05:46:04.021Z,17.17
2023-05-14T05:48:32.532Z,16.40
2023-05-14T05:51:01.158Z,16.35
2023-05-14T05:53:29.581Z,16.55
2023-05-14T05:55:58.024Z,17.20
2023-05-14T05:58:26.663Z,18.02
2023-05-14T06:00:57.523Z,18.25
2023-05-14T06:03:29.045Z,17.27
2023-05-14T06:05:57.875Z,19.05
2023-05-14T06:08:26.570Z,18.67
2023-05-14T06:10:55.016Z,16.35
2023-05-14T06:13:23.597Z,18.02
2023-05-14T06:15:52.159Z,15.95
2023-05-14T06:18:20.793Z,17.63
2023-05-14T06:20:49.312Z,16.70
2023-05-14T06:23:17.825Z,17.83
2023-05-14T06:25:46.737Z,17.63
2023-05-14T06:28:16.053Z,19.17
2023-05-14T06:30:44.558Z,16.95
2023-05-14T06:33:13.458Z,17.23
2023-05-14T06:35:42.169Z,16.73
2023-05-14T06:38:10.708Z,19.42
2023-05-14T06:40:40.318Z,16.52
2023-05-14T06:43:11.980Z,15.13
2023-05-14T06:45:40.663Z,17.83
2023-05-14T06:48:10.218Z,18.48
2023-05-14T06:50:39.051Z,16.30
2023-05-14T06:53:07.760Z,15.05
2023-05-14T06:55:36.499Z,17.17
2023-05-14T06:58:08.582Z,14.55
